Terminal Aerodrome Forecast
Issued by NWS Raleigh/Durham, NC

Home | Current Version | Previous Version | Text Only | Print | Product List | Glossary On
Versions: 1 2 3 4 5 6 7 8 9 10 11 12 13 14 15 16 17 18 19 20 21 22 23 24 25 26 27 28 29 30 31 32 33 34 35 36
707
FTUS42 KRAH 281510 AAB
TAFRDU
TAF AMD
KRDU 281510Z 2815/0112 20008KT P6SM SCT035
      TEMPO 2815/2817 BKN028
     FM281700 20010KT P6SM BKN250
      TEMPO 0100/0103 BKN015
     FM010700 22011KT P6SM OVC007=

USA.gov is the U.S. government's official web portal to all federal, state and local government web resources and services.